sensor_id;sensor_type;location;lat;lon;timestamp;pressure;altitude;pressure_sealevel;temperature;humidity
83631;BME280;73593;52.134;5.426;2023-12-22T00:00:18;100270.03;;;5.34;87.32
83631;BME280;73593;52.134;5.426;2023-12-22T00:02:48;100272.66;;;5.34;87.86
83631;BME280;73593;52.134;5.426;2023-12-22T00:05:15;100275.63;;;5.29;87.92
83631;BME280;73593;52.134;5.426;2023-12-22T00:07:41;100294.28;;;5.25;88.03
83631;BME280;73593;52.134;5.426;2023-12-22T00:10:08;100301.75;;;5.18;88.49
83631;BME280;73593;52.134;5.426;2023-12-22T00:12:36;100320.63;;;5.10;87.94
83631;BME280;73593;52.134;5.426;2023-12-22T00:15:05;100327.22;;;5.03;88.28
83631;BME280;73593;52.134;5.426;2023-12-22T00:17:32;100322.38;;;4.97;88.51
83631;BME280;73593;52.134;5.426;2023-12-22T00:19:58;100310.59;;;4.90;88.83
83631;BME280;73593;52.134;5.426;2023-12-22T00:22:29;100323.91;;;4.87;88.99
83631;BME280;73593;52.134;5.426;2023-12-22T00:24:56;100326.81;;;4.82;88.86
83631;BME280;73593;52.134;5.426;2023-12-22T00:27:26;100314.84;;;4.78;88.25
83631;BME280;73593;52.134;5.426;2023-12-22T00:29:52;100311.59;;;4.75;88.38
83631;BME280;73593;52.134;5.426;2023-12-22T00:32:19;100330.25;;;4.70;87.82
83631;BME280;73593;52.134;5.426;2023-12-22T00:34:46;100325.22;;;4.67;87.64
83631;BME280;73593;52.134;5.426;2023-12-22T00:37:14;100332.25;;;4.67;87.55
83631;BME280;73593;52.134;5.426;2023-12-22T00:39:41;100337.56;;;4.65;87.09
83631;BME280;73593;52.134;5.426;2023-12-22T00:42:08;100324.56;;;4.64;87.01
83631;BME280;73593;52.134;5.426;2023-12-22T00:44:34;100320.38;;;4.61;87.10
83631;BME280;73593;52.134;5.426;2023-12-22T00:47:01;100305.66;;;4.58;86.94
83631;BME280;73593;52.134;5.426;2023-12-22T00:49:27;100318.88;;;4.57;87.24
83631;BME280;73593;52.134;5.426;2023-12-22T00:51:56;100318.88;;;4.57;87.56
83631;BME280;73593;52.134;5.426;2023-12-22T00:54:28;100331.97;;;4.57;87.46
83631;BME280;73593;52.134;5.426;2023-12-22T00:56:58;100333.94;;;4.53;87.60
83631;BME280;73593;52.134;5.426;2023-12-22T00:59:25;100336.88;;;4.49;87.51
83631;BME280;73593;52.134;5.426;2023-12-22T01:01:54;100355.13;;;4.50;87.75
83631;BME280;73593;52.134;5.426;2023-12-22T01:04:20;100340.22;;;4.51;87.99
83631;BME280;73593;52.134;5.426;2023-12-22T01:06:47;100356.78;;;4.51;88.22
83631;BME280;73593;52.134;5.426;2023-12-22T01:09:14;100349.59;;;4.55;88.29
83631;BME280;73593;52.134;5.426;2023-12-22T01:11:41;100360.81;;;4.57;88.59
83631;BME280;73593;52.134;5.426;2023-12-22T01:14:08;100359.75;;;4.59;88.52
83631;BME280;73593;52.134;5.426;2023-12-22T01:16:39;100358.84;;;4.61;88.68
83631;BME280;73593;52.134;5.426;2023-12-22T01:19:08;100356.84;;;4.64;88.26
83631;BME280;73593;52.134;5.426;2023-12-22T01:21:37;100370.69;;;4.66;88.60
83631;BME280;73593;52.134;5.426;2023-12-22T01:24:04;100362.00;;;4.66;88.49
83631;BME280;73593;52.134;5.426;2023-12-22T01:26:33;100347.09;;;4.66;88.56
83631;BME280;73593;52.134;5.426;2023-12-22T01:28:59;100360.13;;;4.68;89.00
83631;BME280;73593;52.134;5.426;2023-12-22T01:31:28;100364.63;;;4.66;88.99
83631;BME280;73593;52.134;5.426;2023-12-22T01:33:57;100349.94;;;4.63;88.84
83631;BME280;73593;52.134;5.426;2023-12-22T01:36:24;100351.91;;;4.59;88.79
83631;BME280;73593;52.134;5.426;2023-12-22T01:38:53;100353.88;;;4.56;89.10
83631;BME280;73593;52.134;5.426;2023-12-22T01:41:20;100354.06;;;4.53;88.95
83631;BME280;73593;52.134;5.426;2023-12-22T01:43:47;100348.00;;;4.52;89.24
83631;BME280;73593;52.134;5.426;2023-12-22T01:46:18;100347.25;;;4.50;89.38
83631;BME280;73593;52.134;5.426;2023-12-22T01:48:47;100341.28;;;4.48;89.31
83631;BME280;73593;52.134;5.426;2023-12-22T01:51:16;100335.28;;;4.46;88.70
83631;BME280;73593;52.134;5.426;2023-12-22T01:53:44;100336.03;;;4.48;89.51
83631;BME280;73593;52.134;5.426;2023-12-22T01:56:12;100342.28;;;4.46;89.23
83631;BME280;73593;52.134;5.426;2023-12-22T01:58:41;100349.53;;;4.42;89.40
83631;BME280;73593;52.134;5.426;2023-12-22T02:01:08;100366.09;;;4.43;89.39
83631;BME280;73593;52.134;5.426;2023-12-22T02:03:34;100358.22;;;4.43;89.88
83631;BME280;73593;52.134;5.426;2023-12-22T02:06:04;100355.59;;;4.43;89.41
83631;BME280;73593;52.134;5.426;2023-12-22T02:08:36;100356.34;;;4.45;89.73
83631;BME280;73593;52.134;5.426;2023-12-22T02:11:07;100356.13;;;4.48;90.07
83631;BME280;73593;52.134;5.426;2023-12-22T02:13:34;100362.03;;;4.51;89.77
83631;BME280;73593;52.134;5.426;2023-12-22T02:16:04;100342.63;;;4.54;89.99
83631;BME280;73593;52.134;5.426;2023-12-22T02:18:37;100338.91;;;4.58;90.12
83631;BME280;73593;52.134;5.426;2023-12-22T02:21:12;100336.00;;;4.63;89.54
83631;BME280;73593;52.134;5.426;2023-12-22T02:23:38;100339.34;;;4.65;89.79
83631;BME280;73593;52.134;5.426;2023-12-22T02:26:10;100324.38;;;4.67;90.04
83631;BME280;73593;52.134;5.426;2023-12-22T02:28:39;100322.66;;;4.66;89.53
83631;BME280;73593;52.134;5.426;2023-12-22T02:31:22;100321.94;;;4.64;89.65
83631;BME280;73593;52.134;5.426;2023-12-22T02:33:55;100328.00;;;4.64;89.61
83631;BME280;73593;52.134;5.426;2023-12-22T02:36:24;100319.03;;;4.68;89.83
83631;BME280;73593;52.134;5.426;2023-12-22T02:38:53;100327.50;;;4.72;89.93
83631;BME280;73593;52.134;5.426;2023-12-22T02:41:23;100316.44;;;4.81;89.62
83631;BME280;73593;52.134;5.426;2023-12-22T02:43:50;100310.16;;;4.83;89.23
83631;BME280;73593;52.134;5.426;2023-12-22T02:46:18;100299.66;;;4.83;89.25
83631;BME280;73593;52.134;5.426;2023-12-22T02:48:47;100309.31;;;4.83;88.94
83631;BME280;73593;52.134;5.426;2023-12-22T02:51:13;100302.41;;;4.95;88.01
83631;BME280;73593;52.134;5.426;2023-12-22T02:53:40;100292.47;;;5.00;87.92
83631;BME280;73593;52.134;5.426;2023-12-22T02:56:07;100285.16;;;5.05;86.99
83631;BME280;73593;52.134;5.426;2023-12-22T02:58:35;100283.25;;;5.20;86.30
83631;BME280;73593;52.134;5.426;2023-12-22T03:01:02;100295.53;;;5.19;85.95
83631;BME280;73593;52.134;5.426;2023-12-22T03:03:29;100298.16;;;5.19;85.79
83631;BME280;73593;52.134;5.426;2023-12-22T03:05:58;100310.16;;;5.23;85.32
83631;BME280;73593;52.134;5.426;2023-12-22T03:08:24;100311.41;;;5.30;84.90
83631;BME280;73593;52.134;5.426;2023-12-22T03:10:51;100322.63;;;5.32;84.79
83631;BME280;73593;52.134;5.426;2023-12-22T03:13:20;100324.97;;;5.37;84.60
83631;BME280;73593;52.134;5.426;2023-12-22T03:15:50;100321.94;;;5.43;84.58
83631;BME280;73593;52.134;5.426;2023-12-22T03:18:16;100331.38;;;5.46;84.53
83631;BME280;73593;52.134;5.426;2023-12-22T03:20:43;100343.56;;;5.47;84.34
83631;BME280;73593;52.134;5.426;2023-12-22T03:23:12;100325.63;;;5.53;84.21
83631;BME280;73593;52.134;5.426;2023-12-22T03:25:38;100348.72;;;5.61;83.42
83631;BME280;73593;52.134;5.426;2023-12-22T03:28:05;100343.06;;;5.67;83.56
83631;BME280;73593;52.134;5.426;2023-12-22T03:30:34;100321.31;;;5.65;83.37
83631;BME280;73593;52.134;5.426;2023-12-22T03:33:02;100321.94;;;5.69;83.12
83631;BME280;73593;52.134;5.426;2023-12-22T03:35:29;100354.16;;;5.71;82.72
83631;BME280;73593;52.134;5.426;2023-12-22T03:37:58;100362.59;;;5.76;82.73
83631;BME280;73593;52.134;5.426;2023-12-22T03:40:25;100369.44;;;5.78;82.76
83631;BME280;73593;52.134;5.426;2023-12-22T03:42:52;100387.81;;;5.65;83.12
83631;BME280;73593;52.134;5.426;2023-12-22T03:45:21;100395.03;;;5.49;83.56
83631;BME280;73593;52.134;5.426;2023-12-22T03:47:50;100413.78;;;5.30;84.02
83631;BME280;73593;52.134;5.426;2023-12-22T03:50:17;100383.66;;;5.09;85.22
83631;BME280;73593;52.134;5.426;2023-12-22T03:52:45;100374.84;;;4.97;85.99
83631;BME280;73593;52.134;5.426;2023-12-22T03:55:14;100384.97;;;4.89;86.57
83631;BME280;73593;52.134;5.426;2023-12-22T03:57:44;100388.81;;;4.83;86.80
83631;BME280;73593;52.134;5.426;2023-12-22T04:00:11;100385.56;;;4.80;87.00
83631;BME280;73593;52.134;5.426;2023-12-22T04:02:39;100387.53;;;4.76;87.41
83631;BME280;73593;52.134;5.426;2023-12-22T04:05:11;100386.69;;;4.76;87.65
83631;BME280;73593;52.134;5.426;2023-12-22T04:07:40;100388.59;;;4.74;87.99
83631;BME280;73593;52.134;5.426;2023-12-22T04:10:07;100383.41;;;4.72;88.42
83631;BME280;73593;52.134;5.426;2023-12-22T04:12:34;100385.97;;;4.74;88.51
83631;BME280;73593;52.134;5.426;2023-12-22T04:15:01;100389.41;;;4.74;88.02
83631;BME280;73593;52.134;5.426;2023-12-22T04:17:32;100385.84;;;4.75;88.58
83631;BME280;73593;52.134;5.426;2023-12-22T04:20:01;100390.25;;;4.75;88.58
83631;BME280;73593;52.134;5.426;2023-12-22T04:22:28;100390.38;;;4.73;88.20
83631;BME280;73593;52.134;5.426;2023-12-22T04:24:56;100391.09;;;4.75;88.72
83631;BME280;73593;52.134;5.426;2023-12-22T04:27:23;100386.81;;;4.74;88.20
83631;BME280;73593;52.134;5.426;2023-12-22T04:29:49;100386.81;;;4.74;88.55
83631;BME280;73593;52.134;5.426;2023-12-22T04:32:18;100396.34;;;4.75;88.58
83631;BME280;73593;52.134;5.426;2023-12-22T04:34:45;100390.25;;;4.75;88.13
83631;BME280;73593;52.134;5.426;2023-12-22T04:37:11;100384.06;;;4.76;88.46
83631;BME280;73593;52.134;5.426;2023-12-22T04:39:38;100378.66;;;4.79;88.59
83631;BME280;73593;52.134;5.426;2023-12-22T04:42:05;100383.78;;;4.80;88.33
83631;BME280;73593;52.134;5.426;2023-12-22T04:44:31;100395.00;;;4.82;88.76
83631;BME280;73593;52.134;5.426;2023-12-22T04:46:58;100399.53;;;4.80;88.41
83631;BME280;73593;52.134;5.426;2023-12-22T04:49:25;100401.09;;;4.83;88.83
83631;BME280;73593;52.134;5.426;2023-12-22T04:51:52;100398.56;;;4.81;88.53
83631;BME280;73593;52.134;5.426;2023-12-22T04:54:18;100396.78;;;4.82;88.40
83631;BME280;73593;52.134;5.426;2023-12-22T04:56:47;100401.09;;;4.83;88.78
83631;BME280;73593;52.134;5.426;2023-12-22T04:59:16;100388.81;;;4.83;88.64
83631;BME280;73593;52.134;5.426;2023-12-22T05:01:46;100390.59;;;4.83;88.25
83631;BME280;73593;52.134;5.426;2023-12-22T05:04:12;100395.84;;;4.83;88.64
83631;BME280;73593;52.134;5.426;2023-12-22T05:06:39;100394.91;;;4.84;88.67
83631;BME280;73593;52.134;5.426;2023-12-22T05:09:05;100388.63;;;4.87;88.70
83631;BME280;73593;52.134;5.426;2023-12-22T05:11:32;100391.16;;;4.88;87.85
83631;BME280;73593;52.134;5.426;2023-12-22T05:14:01;100386.75;;;4.89;88.53
83631;BME280;73593;52.134;5.426;2023-12-22T05:16:30;100383.94;;;4.92;88.01
83631;BME280;73593;52.134;5.426;2023-12-22T05:19:01;100375.03;;;4.94;88.26
83631;BME280;73593;52.134;5.426;2023-12-22T05:21:28;100378.63;;;5.06;88.08
83631;BME280;73593;52.134;5.426;2023-12-22T05:23:54;100360.72;;;5.12;87.62
83631;BME280;73593;52.134;5.426;2023-12-22T05:26:21;100369.66;;;5.23;87.42
83631;BME280;73593;52.134;5.426;2023-12-22T05:28:53;100371.47;;;5.35;87.08
83631;BME280;73593;52.134;5.426;2023-12-22T05:31:20;100374.84;;;5.37;86.88
83631;BME280;73593;52.134;5.426;2023-12-22T05:33:46;100374.44;;;5.43;86.59
83631;BME280;73593;52.134;5.426;2023-12-22T05:36:13;100363.63;;;5.48;86.90
83631;BME280;73593;52.134;5.426;2023-12-22T05:38:40;100373.38;;;5.58;86.74
83631;BME280;73593;52.134;5.426;2023-12-22T05:41:09;100355.47;;;5.65;86.64
83631;BME280;73593;52.134;5.426;2023-12-22T05:43:35;100361.13;;;5.72;86.44
83631;BME280;73593;52.134;5.426;2023-12-22T05:46:03;100354.50;;;5.79;85.97
83631;BME280;73593;52.134;5.426;2023-12-22T05:48:29;100362.81;;;5.85;85.81
83631;BME280;73593;52.134;5.426;2023-12-22T05:50:56;100366.03;;;5.89;85.47
83631;BME280;73593;52.134;5.426;2023-12-22T05:53:26;100362.41;;;5.91;84.88
83631;BME280;73593;52.134;5.426;2023-12-22T05:55:52;100362.09;;;5.96;84.68
83631;BME280;73593;52.134;5.426;2023-12-22T05:58:19;100374.06;;;6.00;84.35
83631;BME280;73593;52.134;5.426;2023-12-22T06:00:48;100373.03;;;6.03;84.40
83631;BME280;73593;52.134;5.426;2023-12-22T06:03:18;100370.50;;;6.01;84.28
83631;BME280;73593;52.134;5.426;2023-12-22T06:05:44;100368.72;;;6.02;84.38
83631;BME280;73593;52.134;5.426;2023-12-22T06:08:11;100363.13;;;6.06;84.89
83631;BME280;73593;52.134;5.426;2023-12-22T06:10:38;100355.88;;;6.10;84.53
83631;BME280;73593;52.134;5.426;2023-12-22T06:13:07;100365.25;;;6.14;84.29
83631;BME280;73593;52.134;5.426;2023-12-22T06:15:33;100355.22;;;6.19;84.50
83631;BME280;73593;52.134;5.426;2023-12-22T06:18:03;100362.91;;;6.22;84.36
83631;BME280;73593;52.134;5.426;2023-12-22T06:20:32;100353.13;;;6.24;84.16
83631;BME280;73593;52.134;5.426;2023-12-22T06:23:01;100366.38;;;6.23;84.28
83631;BME280;73593;52.134;5.426;2023-12-22T06:25:27;100372.56;;;6.34;84.29
83631;BME280;73593;52.134;5.426;2023-12-22T06:27:54;100369.63;;;6.39;84.66
83631;BME280;73593;52.134;5.426;2023-12-22T06:30:21;100365.28;;;6.38;84.11
83631;BME280;73593;52.134;5.426;2023-12-22T06:32:47;100352.66;;;6.43;84.72
83631;BME280;73593;52.134;5.426;2023-12-22T06:35:19;100355.28;;;6.43;84.38
83631;BME280;73593;52.134;5.426;2023-12-22T06:37:52;100361.50;;;6.42;84.74
83631;BME280;73593;52.134;5.426;2023-12-22T06:40:20;100360.66;;;6.41;84.81
83631;BME280;73593;52.134;5.426;2023-12-22T06:42:49;100357.84;;;6.44;85.10
83631;BME280;73593;52.134;5.426;2023-12-22T06:45:16;100360.03;;;6.51;84.48
83631;BME280;73593;52.134;5.426;2023-12-22T06:47:43;100356.84;;;6.58;84.69
83631;BME280;73593;52.134;5.426;2023-12-22T06:50:10;100356.72;;;6.60;84.02
83631;BME280;73593;52.134;5.426;2023-12-22T06:52:36;100365.69;;;6.57;84.36
83631;BME280;73593;52.134;5.426;2023-12-22T06:55:03;100357.34;;;6.63;84.58
83631;BME280;73593;52.134;5.426;2023-12-22T06:57:34;100358.28;;;6.62;84.39
83631;BME280;73593;52.134;5.426;2023-12-22T07:00:03;100367.53;;;6.68;83.80
83631;BME280;73593;52.134;5.426;2023-12-22T07:02:30;100347.94;;;6.72;84.15
83631;BME280;73593;52.134;5.426;2023-12-22T07:07:36;100351.41;;;6.72;84.08
83631;BME280;73593;52.134;5.426;2023-12-22T07:10:03;100348.78;;;6.72;84.19
83631;BME280;73593;52.134;5.426;2023-12-22T07:12:33;100350.56;;;6.72;84.51
83631;BME280;73593;52.134;5.426;2023-12-22T07:14:59;100334.56;;;6.75;84.31
83631;BME280;73593;52.134;5.426;2023-12-22T07:17:28;100339.72;;;6.77;84.45
83631;BME280;73593;52.134;5.426;2023-12-22T07:20:00;100346.44;;;6.81;84.48
83631;BME280;73593;52.134;5.426;2023-12-22T07:22:29;100355.66;;;6.86;84.49
83631;BME280;73593;52.134;5.426;2023-12-22T07:24:59;100360.09;;;6.86;84.34
83631;BME280;73593;52.134;5.426;2023-12-22T07:27:25;100366.53;;;6.82;84.49
83631;BME280;73593;52.134;5.426;2023-12-22T07:29:54;100374.09;;;6.86;84.99
83631;BME280;73593;52.134;5.426;2023-12-22T07:32:23;100374.72;;;6.90;84.73
83631;BME280;73593;52.134;5.426;2023-12-22T07:34:49;100372.09;;;6.90;85.09
83631;BME280;73593;52.134;5.426;2023-12-22T07:37:16;100372.69;;;6.93;84.52
83631;BME280;73593;52.134;5.426;2023-12-22T07:39:43;100358.47;;;6.96;84.53
83631;BME280;73593;52.134;5.426;2023-12-22T07:42:15;100357.31;;;7.00;84.41
83631;BME280;73593;52.134;5.426;2023-12-22T07:44:42;100359.69;;;7.03;84.33
83631;BME280;73593;52.134;5.426;2023-12-22T07:47:14;100372.53;;;7.08;84.25
83631;BME280;73593;52.134;5.426;2023-12-22T07:49:44;100372.41;;;7.09;84.59
83631;BME280;73593;52.134;5.426;2023-12-22T07:52:17;100383.38;;;7.03;84.69
83631;BME280;73593;52.134;5.426;2023-12-22T07:54:44;100350.91;;;6.91;85.02
83631;BME280;73593;52.134;5.426;2023-12-22T07:57:11;100362.22;;;6.81;85.36
83631;BME280;73593;52.134;5.426;2023-12-22T07:59:39;100355.72;;;6.73;86.11
83631;BME280;73593;52.134;5.426;2023-12-22T08:02:06;100372.78;;;6.68;86.13
83631;BME280;73593;52.134;5.426;2023-12-22T08:04:33;100374.81;;;6.64;86.50
83631;BME280;73593;52.134;5.426;2023-12-22T08:07:00;100386.38;;;6.62;87.37
83631;BME280;73593;52.134;5.426;2023-12-22T08:09:26;100388.03;;;6.63;87.39
83631;BME280;73593;52.134;5.426;2023-12-22T08:11:53;100386.03;;;6.66;87.90
83631;BME280;73593;52.134;5.426;2023-12-22T08:14:20;100379.00;;;6.67;88.42
83631;BME280;73593;52.134;5.426;2023-12-22T08:16:49;100365.72;;;6.68;88.43
83631;BME280;73593;52.134;5.426;2023-12-22T08:19:18;100383.22;;;6.69;88.71
83631;BME280;73593;52.134;5.426;2023-12-22T08:21:45;100384.53;;;6.75;88.89
83631;BME280;73593;52.134;5.426;2023-12-22T08:24:22;100357.91;;;6.80;88.71
83631;BME280;73593;52.134;5.426;2023-12-22T08:26:50;100364.97;;;6.79;89.10
83631;BME280;73593;52.134;5.426;2023-12-22T08:29:17;100350.66;;;6.83;89.32
83631;BME280;73593;52.134;5.426;2023-12-22T08:31:45;100341.56;;;6.87;89.29
83631;BME280;73593;52.134;5.426;2023-12-22T08:34:15;100339.66;;;6.89;89.28
83631;BME280;73593;52.134;5.426;2023-12-22T08:36:41;100343.97;;;6.90;89.89
83631;BME280;73593;52.134;5.426;2023-12-22T08:39:09;100348.41;;;6.90;89.23
83631;BME280;73593;52.134;5.426;2023-12-22T08:41:39;100337.75;;;6.91;89.38
83631;BME280;73593;52.134;5.426;2023-12-22T08:44:07;100328.06;;;6.92;89.23
83631;BME280;73593;52.134;5.426;2023-12-22T08:46:34;100327.09;;;6.93;89.33
83631;BME280;73593;52.134;5.426;2023-12-22T08:49:03;100337.53;;;6.94;89.86
83631;BME280;73593;52.134;5.426;2023-12-22T08:51:30;100334.34;;;7.02;89.44
83631;BME280;73593;52.134;5.426;2023-12-22T08:54:00;100320.09;;;7.05;89.68
83631;BME280;73593;52.134;5.426;2023-12-22T08:56:30;100328.00;;;7.05;89.50
83631;BME280;73593;52.134;5.426;2023-12-22T08:58:57;100320.00;;;7.06;90.01
83631;BME280;73593;52.134;5.426;2023-12-22T09:01:26;100318.81;;;7.10;89.94
83631;BME280;73593;52.134;5.426;2023-12-22T09:03:55;100319.19;;;7.17;90.04
83631;BME280;73593;52.134;5.426;2023-12-22T09:06:22;100327.38;;;7.25;89.97
83631;BME280;73593;52.134;5.426;2023-12-22T09:08:49;100327.00;;;7.30;90.24
83631;BME280;73593;52.134;5.426;2023-12-22T09:11:20;100337.31;;;7.33;90.13
83631;BME280;73593;52.134;5.426;2023-12-22T09:13:48;100332.44;;;7.39;90.27
83631;BME280;73593;52.134;5.426;2023-12-22T09:16:23;100332.31;;;7.41;90.17
83631;BME280;73593;52.134;5.426;2023-12-22T09:18:51;100341.88;;;7.42;90.34
83631;BME280;73593;52.134;5.426;2023-12-22T09:21:21;100327.78;;;7.43;90.66
83631;BME280;73593;52.134;5.426;2023-12-22T09:23:50;100338.19;;;7.44;90.42
83631;BME280;73593;52.134;5.426;2023-12-22T09:26:17;100349.78;;;7.42;90.05
83631;BME280;73593;52.134;5.426;2023-12-22T09:28:47;100362.81;;;7.32;89.20
83631;BME280;73593;52.134;5.426;2023-12-22T09:31:14;100333.56;;;7.24;88.65
83631;BME280;73593;52.134;5.426;2023-12-22T09:33:49;100347.44;;;7.15;88.35
83631;BME280;73593;52.134;5.426;2023-12-22T09:36:15;100360.41;;;7.05;88.60
83631;BME280;73593;52.134;5.426;2023-12-22T09:38:42;100344.59;;;6.94;88.47
83631;BME280;73593;52.134;5.426;2023-12-22T09:41:10;100342.63;;;6.85;88.73
83631;BME280;73593;52.134;5.426;2023-12-22T09:43:37;100339.38;;;6.81;89.08
83631;BME280;73593;52.134;5.426;2023-12-22T09:46:06;100337.69;;;6.80;89.34
83631;BME280;73593;52.134;5.426;2023-12-22T09:48:33;100333.50;;;6.78;89.25
83631;BME280;73593;52.134;5.426;2023-12-22T09:51:05;100336.13;;;6.78;89.77
83631;BME280;73593;52.134;5.426;2023-12-22T09:53:35;100326.44;;;6.78;89.90
83631;BME280;73593;52.134;5.426;2023-12-22T09:56:02;100328.00;;;6.81;90.07
83631;BME280;73593;52.134;5.426;2023-12-22T09:58:32;100332.09;;;6.85;90.41
83631;BME280;73593;52.134;5.426;2023-12-22T10:01:02;100322.09;;;6.90;90.70
83631;BME280;73593;52.134;5.426;2023-12-22T10:03:33;100331.09;;;6.98;90.91
83631;BME280;73593;52.134;5.426;2023-12-22T10:06:02;100325.28;;;7.06;91.27
83631;BME280;73593;52.134;5.426;2023-12-22T10:08:30;100319.31;;;7.15;91.47
83631;BME280;73593;52.134;5.426;2023-12-22T10:10:57;100322.81;;;7.27;91.37
83631;BME280;73593;52.134;5.426;2023-12-22T10:13:24;100341.63;;;7.34;91.70
83631;BME280;73593;52.134;5.426;2023-12-22T10:15:57;100336.28;;;7.46;91.88
83631;BME280;73593;52.134;5.426;2023-12-22T10:18:25;100345.88;;;7.59;91.42
83631;BME280;73593;52.134;5.426;2023-12-22T10:20:54;100337.50;;;7.65;91.80
83631;BME280;73593;52.134;5.426;2023-12-22T10:23:21;100327.81;;;7.65;91.46
83631;BME280;73593;52.134;5.426;2023-12-22T10:25:47;100328.66;;;7.66;91.76
83631;BME280;73593;52.134;5.426;2023-12-22T10:28:14;100345.28;;;7.66;91.87
83631;BME280;73593;52.134;5.426;2023-12-22T10:30:44;100366.28;;;7.68;91.88
83631;BME280;73593;52.134;5.426;2023-12-22T10:33:12;100354.53;;;7.72;92.09
83631;BME280;73593;52.134;5.426;2023-12-22T10:35:41;100334.28;;;7.72;91.95
83631;BME280;73593;52.134;5.426;2023-12-22T10:38:11;100335.13;;;7.73;92.12
83631;BME280;73593;52.134;5.426;2023-12-22T10:40:37;100350.00;;;7.74;92.29
83631;BME280;73593;52.134;5.426;2023-12-22T10:43:07;100355.13;;;7.75;92.08
83631;BME280;73593;52.134;5.426;2023-12-22T10:45:35;100353.00;;;7.80;92.34
83631;BME280;73593;52.134;5.426;2023-12-22T10:48:01;100339.69;;;7.82;92.21
83631;BME280;73593;52.134;5.426;2023-12-22T10:50:28;100342.81;;;7.87;92.25
83631;BME280;73593;52.134;5.426;2023-12-22T10:52:55;100341.38;;;7.94;92.25
83631;BME280;73593;52.134;5.426;2023-12-22T10:55:27;100342.69;;;8.00;91.81
83631;BME280;73593;52.134;5.426;2023-12-22T10:57:56;100342.22;;;8.06;91.78
83631;BME280;73593;52.134;5.426;2023-12-22T11:00:25;100332.38;;;8.08;91.54
83631;BME280;73593;52.134;5.426;2023-12-22T11:03:01;100338.38;;;8.10;91.25
83631;BME280;73593;52.134;5.426;2023-12-22T11:05:31;100327.59;;;8.13;91.33
83631;BME280;73593;52.134;5.426;2023-12-22T11:08:00;100327.34;;;8.16;91.25
83631;BME280;73593;52.134;5.426;2023-12-22T11:10:31;100325.31;;;8.20;90.90
83631;BME280;73593;52.134;5.426;2023-12-22T11:12:59;100318.84;;;8.24;90.73
83631;BME280;73593;52.134;5.426;2023-12-22T11:15:27;100320.25;;;8.28;90.38
83631;BME280;73593;52.134;5.426;2023-12-22T11:17:56;100343.78;;;8.31;90.34
83631;BME280;73593;52.134;5.426;2023-12-22T11:20:25;100315.34;;;8.34;89.86
83631;BME280;73593;52.134;5.426;2023-12-22T11:22:54;100328.19;;;8.39;89.44
83631;BME280;73593;52.134;5.426;2023-12-22T11:25:23;100330.69;;;8.41;89.27
83631;BME280;73593;52.134;5.426;2023-12-22T11:27:54;100315.75;;;8.41;89.10
83631;BME280;73593;52.134;5.426;2023-12-22T11:30:22;100307.94;;;8.40;89.30
83631;BME280;73593;52.134;5.426;2023-12-22T11:32:49;100309.88;;;8.38;89.09
83631;BME280;73593;52.134;5.426;2023-12-22T11:35:20;100310.56;;;8.40;88.95
83631;BME280;73593;52.134;5.426;2023-12-22T11:38:00;100319.91;;;8.44;88.92
83631;BME280;73593;52.134;5.426;2023-12-22T11:40:28;100309.97;;;8.47;88.79
83631;BME280;73593;52.134;5.426;2023-12-22T11:42:58;100333.59;;;8.49;88.87
83631;BME280;73593;52.134;5.426;2023-12-22T11:45:30;100302.78;;;8.49;88.90
83631;BME280;73593;52.134;5.426;2023-12-22T11:48:05;100301.66;;;8.52;89.01
83631;BME280;73593;52.134;5.426;2023-12-22T11:50:32;100295.44;;;8.53;88.67
83631;BME280;73593;52.134;5.426;2023-12-22T11:53:18;100301.31;;;8.56;88.35
83631;BME280;73593;52.134;5.426;2023-12-22T11:56:02;100285.94;;;8.61;88.19
83631;BME280;73593;52.134;5.426;2023-12-22T11:58:43;100299.84;;;8.64;87.72
83631;BME280;73593;52.134;5.426;2023-12-22T12:01:19;100301.41;;;8.66;87.72
83631;BME280;73593;52.134;5.426;2023-12-22T12:06:34;100281.13;;;8.67;87.54
83631;BME280;73593;52.134;5.426;2023-12-22T12:09:06;100279.19;;;8.69;87.45
83631;BME280;73593;52.134;5.426;2023-12-22T12:14:22;100280.63;;;8.73;87.61
83631;BME280;73593;52.134;5.426;2023-12-22T12:16:49;100256.88;;;8.73;87.67
83631;BME280;73593;52.134;5.426;2023-12-22T12:19:18;100253.97;;;8.76;87.55
83631;BME280;73593;52.134;5.426;2023-12-22T12:21:46;100262.63;;;8.78;87.31
83631;BME280;73593;52.134;5.426;2023-12-22T12:24:15;100254.72;;;8.78;87.30
83631;BME280;73593;52.134;5.426;2023-12-22T12:26:42;100277.50;;;8.79;87.45
83631;BME280;73593;52.134;5.426;2023-12-22T12:29:09;100259.84;;;8.79;87.17
83631;BME280;73593;52.134;5.426;2023-12-22T12:31:38;100261.41;;;8.82;87.15
83631;BME280;73593;52.134;5.426;2023-12-22T12:34:12;100269.06;;;8.85;86.91
83631;BME280;73593;52.134;5.426;2023-12-22T12:36:41;100262.69;;;8.87;86.80
83631;BME280;73593;52.134;5.426;2023-12-22T12:39:08;100242.41;;;8.88;86.57
83631;BME280;73593;52.134;5.426;2023-12-22T12:41:42;100238.47;;;8.82;87.14
83631;BME280;73593;52.134;5.426;2023-12-22T12:44:14;100263.19;;;8.81;86.73
83631;BME280;73593;52.134;5.426;2023-12-22T12:46:44;100254.63;;;8.89;85.96
83631;BME280;73593;52.134;5.426;2023-12-22T12:49:13;100260.75;;;8.89;86.20
83631;BME280;73593;52.134;5.426;2023-12-22T12:51:44;100257.16;;;8.91;86.26
83631;BME280;73593;52.134;5.426;2023-12-22T12:54:11;100248.28;;;8.92;86.13
83631;BME280;73593;52.134;5.426;2023-12-22T12:56:48;100257.59;;;8.96;85.88
83631;BME280;73593;52.134;5.426;2023-12-22T12:59:16;100270.69;;;8.97;86.06
83631;BME280;73593;52.134;5.426;2023-12-22T13:01:45;100275.13;;;8.97;85.63
83631;BME280;73593;52.134;5.426;2023-12-22T13:04:15;100268.28;;;8.94;86.21
83631;BME280;73593;52.134;5.426;2023-12-22T13:06:46;100278.03;;;8.94;85.98
83631;BME280;73593;52.134;5.426;2023-12-22T13:09:15;100280.66;;;8.94;86.07
83631;BME280;73593;52.134;5.426;2023-12-22T13:11:46;100286.06;;;8.92;86.12
83631;BME280;73593;52.134;5.426;2023-12-22T13:14:22;100278.28;;;8.91;85.88